sensor_id;sensor_type;location;lat;lon;timestamp;temperature;humidity
19864;DHT22;10094;48.820;9.226;2022-08-03T00:02:28;21.30;99.80
19864;DHT22;10094;48.820;9.226;2022-08-03T00:09:11;21.30;99.40
19864;DHT22;10094;48.820;9.226;2022-08-03T00:15:54;21.20;99.10
19864;DHT22;10094;48.820;9.226;2022-08-03T00:22:37;21.20;99.70
19864;DHT22;10094;48.820;9.226;2022-08-03T00:29:20;21.20;99.90
19864;DHT22;10094;48.820;9.226;2022-08-03T00:36:02;21.10;99.90
19864;DHT22;10094;48.820;9.226;2022-08-03T00:42:57;21.10;99.90
19864;DHT22;10094;48.820;9.226;2022-08-03T00:49:40;21.10;99.90
19864;DHT22;10094;48.820;9.226;2022-08-03T00:56:23;21.10;99.90
19864;DHT22;10094;48.820;9.226;2022-08-03T01:03:07;21.00;99.90
19864;DHT22;10094;48.820;9.226;2022-08-03T01:10:05;21.00;99.90
19864;DHT22;10094;48.820;9.226;2022-08-03T01:17:30;20.80;99.90
19864;DHT22;10094;48.820;9.226;2022-08-03T01:24:33;20.60;99.90
19864;DHT22;10094;48.820;9.226;2022-08-03T01:31:21;20.20;99.90
19864;DHT22;10094;48.820;9.226;2022-08-03T01:38:10;20.20;99.90
19864;DHT22;10094;48.820;9.226;2022-08-03T01:44:54;20.20;99.90
19864;DHT22;10094;48.820;9.226;2022-08-03T01:52:17;20.30;99.90
19864;DHT22;10094;48.820;9.226;2022-08-03T01:59:01;20.10;99.90
19864;DHT22;10094;48.820;9.226;2022-08-03T02:05:46;19.90;99.90
19864;DHT22;10094;48.820;9.226;2022-08-03T02:12:30;20.00;99.90
19864;DHT22;10094;48.820;9.226;2022-08-03T02:19:15;20.00;99.90
19864;DHT22;10094;48.820;9.226;2022-08-03T02:26:02;20.00;99.90
19864;DHT22;10094;48.820;9.226;2022-08-03T02:32:52;19.80;99.90
19864;DHT22;10094;48.820;9.226;2022-08-03T02:39:36;19.70;99.90
19864;DHT22;10094;48.820;9.226;2022-08-03T02:46:24;19.60;99.90
19864;DHT22;10094;48.820;9.226;2022-08-03T02:53:08;19.50;99.90
19864;DHT22;10094;48.820;9.226;2022-08-03T02:59:52;19.70;99.90
19864;DHT22;10094;48.820;9.226;2022-08-03T03:06:37;19.70;99.90
19864;DHT22;10094;48.820;9.226;2022-08-03T03:13:21;19.80;99.90
19864;DHT22;10094;48.820;9.226;2022-08-03T03:20:05;19.80;99.90
19864;DHT22;10094;48.820;9.226;2022-08-03T03:26:48;19.70;99.90
19864;DHT22;10094;48.820;9.226;2022-08-03T03:33:35;19.70;99.90
19864;DHT22;10094;48.820;9.226;2022-08-03T03:40:18;19.60;99.90
19864;DHT22;10094;48.820;9.226;2022-08-03T03:47:01;19.60;99.90
19864;DHT22;10094;48.820;9.226;2022-08-03T03:53:57;19.70;99.90
19864;DHT22;10094;48.820;9.226;2022-08-03T04:08:18;19.70;99.90
19864;DHT22;10094;48.820;9.226;2022-08-03T04:15:20;19.70;99.90
19864;DHT22;10094;48.820;9.226;2022-08-03T04:22:11;19.50;99.90
19864;DHT22;10094;48.820;9.226;2022-08-03T04:28:56;19.50;99.90
19864;DHT22;10094;48.820;9.226;2022-08-03T04:35:41;19.60;99.90
19864;DHT22;10094;48.820;9.226;2022-08-03T04:42:45;19.80;99.90
19864;DHT22;10094;48.820;9.226;2022-08-03T04:49:28;19.70;99.90
19864;DHT22;10094;48.820;9.226;2022-08-03T04:56:11;19.80;99.90
19864;DHT22;10094;48.820;9.226;2022-08-03T05:02:54;19.80;99.90
19864;DHT22;10094;48.820;9.226;2022-08-03T05:09:36;19.90;99.90
19864;DHT22;10094;48.820;9.226;2022-08-03T05:16:33;20.10;99.90
19864;DHT22;10094;48.820;9.226;2022-08-03T05:23:16;20.10;99.90
19864;DHT22;10094;48.820;9.226;2022-08-03T05:29:59;22.90;99.90
19864;DHT22;10094;48.820;9.226;2022-08-03T05:37:01;25.50;95.50
19864;DHT22;10094;48.820;9.226;2022-08-03T05:43:44;27.50;93.60
19864;DHT22;10094;48.820;9.226;2022-08-03T05:50:26;27.90;92.10
19864;DHT22;10094;48.820;9.226;2022-08-03T05:57:09;29.40;91.00
19864;DHT22;10094;48.820;9.226;2022-08-03T06:03:51;31.10;88.30
19864;DHT22;10094;48.820;9.226;2022-08-03T06:10:34;31.50;87.50
19864;DHT22;10094;48.820;9.226;2022-08-03T06:17:19;32.90;84.40
19864;DHT22;10094;48.820;9.226;2022-08-03T06:24:02;32.40;83.60
19864;DHT22;10094;48.820;9.226;2022-08-03T06:30:47;32.70;84.10
19864;DHT22;10094;48.820;9.226;2022-08-03T06:37:31;32.90;84.40
19864;DHT22;10094;48.820;9.226;2022-08-03T06:44:22;32.60;83.00
19864;DHT22;10094;48.820;9.226;2022-08-03T06:51:04;33.70;82.40
19864;DHT22;10094;48.820;9.226;2022-08-03T06:57:48;35.40;80.20
19864;DHT22;10094;48.820;9.226;2022-08-03T07:04:30;35.40;78.90
19864;DHT22;10094;48.820;9.226;2022-08-03T07:11:12;35.60;77.90
19864;DHT22;10094;48.820;9.226;2022-08-03T07:17:55;36.20;76.80
19864;DHT22;10094;48.820;9.226;2022-08-03T07:24:37;36.90;75.30
19864;DHT22;10094;48.820;9.226;2022-08-03T07:31:20;37.70;73.10
19864;DHT22;10094;48.820;9.226;2022-08-03T07:38:02;38.40;71.20
19864;DHT22;10094;48.820;9.226;2022-08-03T07:44:44;38.80;70.10
19864;DHT22;10094;48.820;9.226;2022-08-03T07:51:27;35.40;70.80
19864;DHT22;10094;48.820;9.226;2022-08-03T07:58:10;37.20;71.00
19864;DHT22;10094;48.820;9.226;2022-08-03T08:05:00;39.90;68.50
19864;DHT22;10094;48.820;9.226;2022-08-03T08:11:48;40.70;67.00
19864;DHT22;10094;48.820;9.226;2022-08-03T08:18:31;41.00;66.20
19864;DHT22;10094;48.820;9.226;2022-08-03T08:25:13;41.00;65.00
19864;DHT22;10094;48.820;9.226;2022-08-03T08:32:00;40.60;64.80
19864;DHT22;10094;48.820;9.226;2022-08-03T08:38:43;42.60;63.90
19864;DHT22;10094;48.820;9.226;2022-08-03T08:45:26;41.60;61.50
19864;DHT22;10094;48.820;9.226;2022-08-03T08:52:09;42.20;62.40
19864;DHT22;10094;48.820;9.226;2022-08-03T08:59:06;43.10;61.20
19864;DHT22;10094;48.820;9.226;2022-08-03T09:05:49;43.00;60.40
19864;DHT22;10094;48.820;9.226;2022-08-03T09:13:08;43.80;58.80
19864;DHT22;10094;48.820;9.226;2022-08-03T09:20:05;43.80;56.10
19864;DHT22;10094;48.820;9.226;2022-08-03T09:26:51;43.90;56.40
19864;DHT22;10094;48.820;9.226;2022-08-03T09:33:46;44.10;54.90
19864;DHT22;10094;48.820;9.226;2022-08-03T09:40:35;45.30;54.70
19864;DHT22;10094;48.820;9.226;2022-08-03T09:47:30;44.10;55.00
19864;DHT22;10094;48.820;9.226;2022-08-03T09:54:33;44.30;54.80
19864;DHT22;10094;48.820;9.226;2022-08-03T10:01:15;44.00;54.80
19864;DHT22;10094;48.820;9.226;2022-08-03T10:08:17;42.90;54.10
19864;DHT22;10094;48.820;9.226;2022-08-03T10:14:59;39.20;56.60
19864;DHT22;10094;48.820;9.226;2022-08-03T10:21:49;41.90;55.40
19864;DHT22;10094;48.820;9.226;2022-08-03T10:28:38;42.60;53.60
19864;DHT22;10094;48.820;9.226;2022-08-03T10:35:28;41.60;53.10
19864;DHT22;10094;48.820;9.226;2022-08-03T10:42:11;41.20;53.60
19864;DHT22;10094;48.820;9.226;2022-08-03T10:48:56;41.40;53.00
19864;DHT22;10094;48.820;9.226;2022-08-03T10:55:41;41.90;53.90
19864;DHT22;10094;48.820;9.226;2022-08-03T11:03:12;38.10;54.70
19864;DHT22;10094;48.820;9.226;2022-08-03T11:09:55;36.00;57.30
19864;DHT22;10094;48.820;9.226;2022-08-03T11:16:50;35.90;57.80
19864;DHT22;10094;48.820;9.226;2022-08-03T11:23:47;35.30;58.10
19864;DHT22;10094;48.820;9.226;2022-08-03T11:30:46;34.90;59.30
19864;DHT22;10094;48.820;9.226;2022-08-03T11:37:29;34.90;60.00
19864;DHT22;10094;48.820;9.226;2022-08-03T11:44:39;33.50;60.50
19864;DHT22;10094;48.820;9.226;2022-08-03T11:51:27;33.50;60.90
19864;DHT22;10094;48.820;9.226;2022-08-03T11:58:19;33.70;61.10
19864;DHT22;10094;48.820;9.226;2022-08-03T12:05:41;34.20;60.60
19864;DHT22;10094;48.820;9.226;2022-08-03T12:13:10;33.30;60.80
19864;DHT22;10094;48.820;9.226;2022-08-03T12:20:27;33.70;61.30
19864;DHT22;10094;48.820;9.226;2022-08-03T12:27:25;33.50;61.40
19864;DHT22;10094;48.820;9.226;2022-08-03T12:34:10;33.50;61.20
19864;DHT22;10094;48.820;9.226;2022-08-03T12:40:58;33.60;61.50
19864;DHT22;10094;48.820;9.226;2022-08-03T12:47:57;34.00;61.20
19864;DHT22;10094;48.820;9.226;2022-08-03T12:54:41;33.80;61.30
19864;DHT22;10094;48.820;9.226;2022-08-03T13:01:25;33.70;61.60
19864;DHT22;10094;48.820;9.226;2022-08-03T13:08:22;33.50;61.60
19864;DHT22;10094;48.820;9.226;2022-08-03T13:15:05;33.60;61.70
19864;DHT22;10094;48.820;9.226;2022-08-03T13:21:50;33.80;61.70
19864;DHT22;10094;48.820;9.226;2022-08-03T13:28:45;34.20;61.30
19864;DHT22;10094;48.820;9.226;2022-08-03T13:35:28;33.60;61.10
19864;DHT22;10094;48.820;9.226;2022-08-03T13:42:10;34.10;61.40
19864;DHT22;10094;48.820;9.226;2022-08-03T13:48:53;33.90;61.80
19864;DHT22;10094;48.820;9.226;2022-08-03T13:55:35;34.00;61.90
19864;DHT22;10094;48.820;9.226;2022-08-03T14:02:18;33.80;61.50
19864;DHT22;10094;48.820;9.226;2022-08-03T14:09:00;33.90;61.80
19864;DHT22;10094;48.820;9.226;2022-08-03T14:15:45;34.00;61.90
19864;DHT22;10094;48.820;9.226;2022-08-03T14:22:32;34.20;62.20
19864;DHT22;10094;48.820;9.226;2022-08-03T14:29:14;34.40;61.80
19864;DHT22;10094;48.820;9.226;2022-08-03T14:35:57;34.30;61.50
19864;DHT22;10094;48.820;9.226;2022-08-03T14:42:39;34.10;61.50
19864;DHT22;10094;48.820;9.226;2022-08-03T14:49:21;34.40;61.50
19864;DHT22;10094;48.820;9.226;2022-08-03T14:56:24;34.60;61.20
19864;DHT22;10094;48.820;9.226;2022-08-03T15:03:06;34.40;61.40
19864;DHT22;10094;48.820;9.226;2022-08-03T15:09:49;34.50;61.10
19864;DHT22;10094;48.820;9.226;2022-08-03T15:16:31;34.50;61.30
19864;DHT22;10094;48.820;9.226;2022-08-03T15:23:15;34.30;60.80
19864;DHT22;10094;48.820;9.226;2022-08-03T15:29:57;34.30;60.80
19864;DHT22;10094;48.820;9.226;2022-08-03T15:36:51;34.10;60.50
19864;DHT22;10094;48.820;9.226;2022-08-03T15:43:33;34.00;60.30
19864;DHT22;10094;48.820;9.226;2022-08-03T15:50:19;33.90;60.40
19864;DHT22;10094;48.820;9.226;2022-08-03T15:57:02;33.70;60.20
19864;DHT22;10094;48.820;9.226;2022-08-03T16:03:45;33.90;60.30
19864;DHT22;10094;48.820;9.226;2022-08-03T16:10:27;34.00;60.00
19864;DHT22;10094;48.820;9.226;2022-08-03T16:17:11;33.90;59.60
19864;DHT22;10094;48.820;9.226;2022-08-03T16:23:54;34.30;59.80
19864;DHT22;10094;48.820;9.226;2022-08-03T16:30:37;34.20;59.60
19864;DHT22;10094;48.820;9.226;2022-08-03T16:37:21;34.10;58.80
19864;DHT22;10094;48.820;9.226;2022-08-03T16:44:20;34.00;58.60
19864;DHT22;10094;48.820;9.226;2022-08-03T16:51:02;34.00;58.30
19864;DHT22;10094;48.820;9.226;2022-08-03T16:57:44;34.10;57.90
19864;DHT22;10094;48.820;9.226;2022-08-03T17:04:41;34.10;58.40
19864;DHT22;10094;48.820;9.226;2022-08-03T17:11:25;34.10;57.90
19864;DHT22;10094;48.820;9.226;2022-08-03T17:18:13;33.90;57.80
19864;DHT22;10094;48.820;9.226;2022-08-03T17:25:06;33.80;57.50
19864;DHT22;10094;48.820;9.226;2022-08-03T17:31:50;33.70;57.00
19864;DHT22;10094;48.820;9.226;2022-08-03T17:38:37;33.70;57.90
19864;DHT22;10094;48.820;9.226;2022-08-03T17:45:19;33.50;58.50
19864;DHT22;10094;48.820;9.226;2022-08-03T17:52:04;33.50;58.40
19864;DHT22;10094;48.820;9.226;2022-08-03T17:59:02;33.40;58.30
19864;DHT22;10094;48.820;9.226;2022-08-03T18:05:54;33.40;58.40
19864;DHT22;10094;48.820;9.226;2022-08-03T18:12:55;33.10;58.70
19864;DHT22;10094;48.820;9.226;2022-08-03T18:19:40;32.90;60.50
19864;DHT22;10094;48.820;9.226;2022-08-03T18:26:44;32.80;61.10
19864;DHT22;10094;48.820;9.226;2022-08-03T18:34:03;32.60;61.60
19864;DHT22;10094;48.820;9.226;2022-08-03T18:41:05;32.30;62.00
19864;DHT22;10094;48.820;9.226;2022-08-03T18:48:10;32.00;62.80
19864;DHT22;10094;48.820;9.226;2022-08-03T18:55:11;31.70;63.70
19864;DHT22;10094;48.820;9.226;2022-08-03T19:02:17;31.30;64.50
19864;DHT22;10094;48.820;9.226;2022-08-03T19:16:20;30.60;66.10
19864;DHT22;10094;48.820;9.226;2022-08-03T19:23:10;30.30;66.50
19864;DHT22;10094;48.820;9.226;2022-08-03T19:29:57;30.00;67.10
19864;DHT22;10094;48.820;9.226;2022-08-03T19:36:45;29.80;67.40
19864;DHT22;10094;48.820;9.226;2022-08-03T19:44:08;29.50;68.60
19864;DHT22;10094;48.820;9.226;2022-08-03T19:50:52;29.20;70.10
19864;DHT22;10094;48.820;9.226;2022-08-03T19:57:37;28.90;70.20
19864;DHT22;10094;48.820;9.226;2022-08-03T20:04:20;28.80;71.30
19864;DHT22;10094;48.820;9.226;2022-08-03T20:11:02;28.50;71.80
19864;DHT22;10094;48.820;9.226;2022-08-03T20:17:48;28.30;72.50
19864;DHT22;10094;48.820;9.226;2022-08-03T20:24:42;28.20;73.80
19864;DHT22;10094;48.820;9.226;2022-08-03T20:31:32;28.00;74.20
19864;DHT22;10094;48.820;9.226;2022-08-03T20:38:18;27.90;75.10
19864;DHT22;10094;48.820;9.226;2022-08-03T20:45:00;27.80;75.00
19864;DHT22;10094;48.820;9.226;2022-08-03T20:51:49;27.70;74.70
19864;DHT22;10094;48.820;9.226;2022-08-03T20:58:35;27.60;74.30
19864;DHT22;10094;48.820;9.226;2022-08-03T21:05:22;27.50;74.90
19864;DHT22;10094;48.820;9.226;2022-08-03T21:12:38;27.10;77.00
19864;DHT22;10094;48.820;9.226;2022-08-03T21:19:23;26.90;78.10
19864;DHT22;10094;48.820;9.226;2022-08-03T21:26:07;26.70;79.50
19864;DHT22;10094;48.820;9.226;2022-08-03T21:32:53;26.30;84.10
19864;DHT22;10094;48.820;9.226;2022-08-03T21:39:37;26.10;86.70
19864;DHT22;10094;48.820;9.226;2022-08-03T21:46:35;26.00;87.00
19864;DHT22;10094;48.820;9.226;2022-08-03T21:53:18;26.00;87.00
19864;DHT22;10094;48.820;9.226;2022-08-03T22:00:15;25.90;87.70
19864;DHT22;10094;48.820;9.226;2022-08-03T22:08:13;25.60;89.50
19864;DHT22;10094;48.820;9.226;2022-08-03T22:14:58;25.10;92.30
19864;DHT22;10094;48.820;9.226;2022-08-03T22:21:46;25.00;92.40
19864;DHT22;10094;48.820;9.226;2022-08-03T22:28:30;25.00;92.30
19864;DHT22;10094;48.820;9.226;2022-08-03T22:35:13;24.70;91.40
19864;DHT22;10094;48.820;9.226;2022-08-03T22:41:57;24.70;92.30
19864;DHT22;10094;48.820;9.226;2022-08-03T22:48:43;24.60;92.40
19864;DHT22;10094;48.820;9.226;2022-08-03T22:55:27;24.60;91.70
19864;DHT22;10094;48.820;9.226;2022-08-03T23:02:20;24.40;93.10
19864;DHT22;10094;48.820;9.226;2022-08-03T23:09:06;24.20;94.90
19864;DHT22;10094;48.820;9.226;2022-08-03T23:15:54;24.20;94.20
19864;DHT22;10094;48.820;9.226;2022-08-03T23:22:38;24.10;93.10
19864;DHT22;10094;48.820;9.226;2022-08-03T23:29:25;24.10;92.90
19864;DHT22;10094;48.820;9.226;2022-08-03T23:36:12;24.10;93.00
19864;DHT22;10094;48.820;9.226;2022-08-03T23:43:13;24.00;93.50
19864;DHT22;10094;48.820;9.226;2022-08-03T23:50:16;23.70;96.50
